sensor_id;sensor_type;location;lat;lon;timestamp;P1;durP1;ratioP1;P2;durP2;ratioP2
44228;SDS011;29904;51.058;5.378;2023-05-16T00:00:18;11.93;;;2.65;;
44228;SDS011;29904;51.058;5.378;2023-05-16T00:02:44;9.90;;;2.33;;
44228;SDS011;29904;51.058;5.378;2023-05-16T00:05:10;13.47;;;2.60;;
44228;SDS011;29904;51.058;5.378;2023-05-16T00:07:40;10.73;;;2.20;;
44228;SDS011;29904;51.058;5.378;2023-05-16T00:10:08;12.25;;;2.70;;
44228;SDS011;29904;51.058;5.378;2023-05-16T00:12:34;13.43;;;2.47;;
44228;SDS011;29904;51.058;5.378;2023-05-16T00:15:01;14.15;;;2.40;;
44228;SDS011;29904;51.058;5.378;2023-05-16T00:17:29;16.08;;;2.97;;
44228;SDS011;29904;51.058;5.378;2023-05-16T00:19:54;12.13;;;2.50;;
44228;SDS011;29904;51.058;5.378;2023-05-16T00:22:25;11.10;;;2.75;;
44228;SDS011;29904;51.058;5.378;2023-05-16T00:24:51;14.70;;;2.27;;
44228;SDS011;29904;51.058;5.378;2023-05-16T00:27:17;13.68;;;2.50;;
44228;SDS011;29904;51.058;5.378;2023-05-16T00:29:43;12.27;;;2.55;;
44228;SDS011;29904;51.058;5.378;2023-05-16T00:32:09;13.00;;;2.58;;
44228;SDS011;29904;51.058;5.378;2023-05-16T00:34:35;11.98;;;2.40;;
44228;SDS011;29904;51.058;5.378;2023-05-16T00:37:01;10.77;;;2.10;;
44228;SDS011;29904;51.058;5.378;2023-05-16T00:39:27;10.35;;;2.22;;
44228;SDS011;29904;51.058;5.378;2023-05-16T00:41:52;10.82;;;2.25;;
44228;SDS011;29904;51.058;5.378;2023-05-16T00:44:18;15.55;;;2.78;;
44228;SDS011;29904;51.058;5.378;2023-05-16T00:46:44;15.30;;;2.75;;
44228;SDS011;29904;51.058;5.378;2023-05-16T00:49:10;14.18;;;2.72;;
44228;SDS011;29904;51.058;5.378;2023-05-16T00:51:37;10.90;;;2.20;;
44228;SDS011;29904;51.058;5.378;2023-05-16T00:54:04;15.75;;;2.75;;
44228;SDS011;29904;51.058;5.378;2023-05-16T00:56:30;11.75;;;2.22;;
44228;SDS011;29904;51.058;5.378;2023-05-16T00:58:56;9.93;;;2.30;;
44228;SDS011;29904;51.058;5.378;2023-05-16T01:01:22;13.40;;;2.10;;
44228;SDS011;29904;51.058;5.378;2023-05-16T01:03:50;15.48;;;2.58;;
44228;SDS011;29904;51.058;5.378;2023-05-16T01:06:18;13.25;;;2.25;;
44228;SDS011;29904;51.058;5.378;2023-05-16T01:08:44;11.02;;;2.08;;
44228;SDS011;29904;51.058;5.378;2023-05-16T01:11:20;13.65;;;1.80;;
44228;SDS011;29904;51.058;5.378;2023-05-16T01:16:29;11.85;;;2.00;;
44228;SDS011;29904;51.058;5.378;2023-05-16T01:22:11;10.87;;;2.07;;
44228;SDS011;29904;51.058;5.378;2023-05-16T01:27:25;18.65;;;2.38;;
44228;SDS011;29904;51.058;5.378;2023-05-16T01:29:56;11.15;;;2.17;;
44228;SDS011;29904;51.058;5.378;2023-05-16T01:32:22;10.90;;;1.92;;
44228;SDS011;29904;51.058;5.378;2023-05-16T01:34:51;11.10;;;1.88;;
44228;SDS011;29904;51.058;5.378;2023-05-16T01:42:21;10.80;;;1.80;;
44228;SDS011;29904;51.058;5.378;2023-05-16T01:45:06;10.63;;;1.90;;
44228;SDS011;29904;51.058;5.378;2023-05-16T01:47:39;12.60;;;1.77;;
44228;SDS011;29904;51.058;5.378;2023-05-16T01:50:09;11.80;;;1.70;;
44228;SDS011;29904;51.058;5.378;2023-05-16T01:58:01;13.73;;;2.00;;
44228;SDS011;29904;51.058;5.378;2023-05-16T02:00:29;13.07;;;1.83;;
44228;SDS011;29904;51.058;5.378;2023-05-16T02:02:55;11.35;;;1.80;;
44228;SDS011;29904;51.058;5.378;2023-05-16T02:05:21;9.63;;;1.58;;
44228;SDS011;29904;51.058;5.378;2023-05-16T02:07:47;12.88;;;2.03;;
44228;SDS011;29904;51.058;5.378;2023-05-16T02:10:14;12.73;;;1.80;;
44228;SDS011;29904;51.058;5.378;2023-05-16T02:12:39;11.23;;;1.80;;
44228;SDS011;29904;51.058;5.378;2023-05-16T02:15:05;12.07;;;1.90;;
44228;SDS011;29904;51.058;5.378;2023-05-16T02:17:31;9.55;;;1.63;;
44228;SDS011;29904;51.058;5.378;2023-05-16T02:19:57;10.68;;;1.75;;
44228;SDS011;29904;51.058;5.378;2023-05-16T02:22:23;11.07;;;2.22;;
44228;SDS011;29904;51.058;5.378;2023-05-16T02:24:49;10.13;;;1.80;;
44228;SDS011;29904;51.058;5.378;2023-05-16T02:27:15;11.20;;;1.67;;
44228;SDS011;29904;51.058;5.378;2023-05-16T02:29:40;11.70;;;1.73;;
44228;SDS011;29904;51.058;5.378;2023-05-16T02:32:06;9.53;;;1.30;;
44228;SDS011;29904;51.058;5.378;2023-05-16T02:34:32;9.68;;;1.65;;
44228;SDS011;29904;51.058;5.378;2023-05-16T02:36:58;9.32;;;1.23;;
44228;SDS011;29904;51.058;5.378;2023-05-16T02:39:24;10.02;;;1.50;;
44228;SDS011;29904;51.058;5.378;2023-05-16T02:41:49;9.70;;;1.73;;
44228;SDS011;29904;51.058;5.378;2023-05-16T02:44:15;13.02;;;1.50;;
44228;SDS011;29904;51.058;5.378;2023-05-16T02:46:41;8.13;;;1.52;;
44228;SDS011;29904;51.058;5.378;2023-05-16T02:49:07;7.90;;;1.50;;
44228;SDS011;29904;51.058;5.378;2023-05-16T02:51:32;8.32;;;1.52;;
44228;SDS011;29904;51.058;5.378;2023-05-16T02:53:58;7.63;;;1.50;;
44228;SDS011;29904;51.058;5.378;2023-05-16T02:56:25;10.90;;;1.55;;
44228;SDS011;29904;51.058;5.378;2023-05-16T02:58:52;8.37;;;1.47;;
44228;SDS011;29904;51.058;5.378;2023-05-16T03:01:18;10.23;;;1.50;;
44228;SDS011;29904;51.058;5.378;2023-05-16T03:03:44;8.43;;;1.70;;
44228;SDS011;29904;51.058;5.378;2023-05-16T03:06:10;11.02;;;1.58;;
44228;SDS011;29904;51.058;5.378;2023-05-16T03:08:36;8.10;;;1.50;;
44228;SDS011;29904;51.058;5.378;2023-05-16T03:11:02;11.27;;;1.63;;
44228;SDS011;29904;51.058;5.378;2023-05-16T03:13:27;11.82;;;1.50;;
44228;SDS011;29904;51.058;5.378;2023-05-16T03:15:54;9.35;;;1.30;;
44228;SDS011;29904;51.058;5.378;2023-05-16T03:18:20;5.57;;;1.10;;
44228;SDS011;29904;51.058;5.378;2023-05-16T03:20:46;8.73;;;1.35;;
44228;SDS011;29904;51.058;5.378;2023-05-16T03:23:12;6.03;;;1.52;;
44228;SDS011;29904;51.058;5.378;2023-05-16T03:25:37;7.60;;;1.58;;
44228;SDS011;29904;51.058;5.378;2023-05-16T03:28:04;8.13;;;1.60;;
44228;SDS011;29904;51.058;5.378;2023-05-16T03:30:32;6.63;;;1.48;;
44228;SDS011;29904;51.058;5.378;2023-05-16T03:32:58;7.13;;;1.40;;
44228;SDS011;29904;51.058;5.378;2023-05-16T03:35:23;9.67;;;1.60;;
44228;SDS011;29904;51.058;5.378;2023-05-16T03:37:49;9.97;;;1.50;;
44228;SDS011;29904;51.058;5.378;2023-05-16T03:40:15;9.57;;;1.53;;
44228;SDS011;29904;51.058;5.378;2023-05-16T03:42:42;8.18;;;1.52;;
44228;SDS011;29904;51.058;5.378;2023-05-16T03:45:07;4.83;;;1.20;;
44228;SDS011;29904;51.058;5.378;2023-05-16T03:47:33;8.63;;;1.40;;
44228;SDS011;29904;51.058;5.378;2023-05-16T03:49:59;11.30;;;1.40;;
44228;SDS011;29904;51.058;5.378;2023-05-16T03:52:25;6.93;;;1.50;;
44228;SDS011;29904;51.058;5.378;2023-05-16T03:54:50;9.35;;;1.33;;
44228;SDS011;29904;51.058;5.378;2023-05-16T03:57:16;10.80;;;1.70;;
44228;SDS011;29904;51.058;5.378;2023-05-16T03:59:42;11.20;;;1.70;;
44228;SDS011;29904;51.058;5.378;2023-05-16T04:02:08;11.75;;;1.80;;
44228;SDS011;29904;51.058;5.378;2023-05-16T04:04:34;8.43;;;1.50;;
44228;SDS011;29904;51.058;5.378;2023-05-16T04:07:00;11.18;;;1.67;;
44228;SDS011;29904;51.058;5.378;2023-05-16T04:09:26;7.68;;;1.25;;
44228;SDS011;29904;51.058;5.378;2023-05-16T04:11:52;8.20;;;1.30;;
44228;SDS011;29904;51.058;5.378;2023-05-16T04:14:20;6.85;;;1.60;;
44228;SDS011;29904;51.058;5.378;2023-05-16T04:16:47;12.98;;;1.77;;
44228;SDS011;29904;51.058;5.378;2023-05-16T04:19:12;7.75;;;1.40;;
44228;SDS011;29904;51.058;5.378;2023-05-16T04:21:38;8.60;;;1.67;;
44228;SDS011;29904;51.058;5.378;2023-05-16T04:24:04;12.90;;;2.05;;
44228;SDS011;29904;51.058;5.378;2023-05-16T04:26:30;10.40;;;1.60;;
44228;SDS011;29904;51.058;5.378;2023-05-16T04:28:56;8.90;;;1.60;;
44228;SDS011;29904;51.058;5.378;2023-05-16T04:31:23;11.00;;;1.45;;
44228;SDS011;29904;51.058;5.378;2023-05-16T04:33:49;12.02;;;1.67;;
44228;SDS011;29904;51.058;5.378;2023-05-16T04:36:15;6.22;;;1.30;;
44228;SDS011;29904;51.058;5.378;2023-05-16T04:38:41;7.80;;;1.48;;
44228;SDS011;29904;51.058;5.378;2023-05-16T04:41:07;9.93;;;1.75;;
44228;SDS011;29904;51.058;5.378;2023-05-16T04:43:32;9.15;;;1.52;;
44228;SDS011;29904;51.058;5.378;2023-05-16T04:45:59;8.73;;;1.60;;
44228;SDS011;29904;51.058;5.378;2023-05-16T04:48:25;7.00;;;1.50;;
44228;SDS011;29904;51.058;5.378;2023-05-16T04:50:51;9.57;;;1.65;;
44228;SDS011;29904;51.058;5.378;2023-05-16T04:53:16;8.43;;;1.65;;
44228;SDS011;29904;51.058;5.378;2023-05-16T04:55:42;10.02;;;1.58;;
44228;SDS011;29904;51.058;5.378;2023-05-16T04:58:08;7.93;;;1.52;;
44228;SDS011;29904;51.058;5.378;2023-05-16T05:00:33;15.30;;;1.70;;
44228;SDS011;29904;51.058;5.378;2023-05-16T05:03:00;6.90;;;1.75;;
44228;SDS011;29904;51.058;5.378;2023-05-16T05:05:26;11.15;;;1.30;;
44228;SDS011;29904;51.058;5.378;2023-05-16T05:07:51;7.97;;;1.52;;
44228;SDS011;29904;51.058;5.378;2023-05-16T05:10:18;7.30;;;1.40;;
44228;SDS011;29904;51.058;5.378;2023-05-16T05:12:44;8.15;;;1.42;;
44228;SDS011;29904;51.058;5.378;2023-05-16T05:15:09;9.63;;;1.60;;
44228;SDS011;29904;51.058;5.378;2023-05-16T05:17:35;8.43;;;1.63;;
44228;SDS011;29904;51.058;5.378;2023-05-16T05:20:02;9.18;;;1.50;;
44228;SDS011;29904;51.058;5.378;2023-05-16T05:22:31;7.55;;;1.30;;
44228;SDS011;29904;51.058;5.378;2023-05-16T05:24:56;9.07;;;1.75;;
44228;SDS011;29904;51.058;5.378;2023-05-16T05:27:22;8.32;;;1.52;;
44228;SDS011;29904;51.058;5.378;2023-05-16T05:29:49;10.80;;;1.98;;
44228;SDS011;29904;51.058;5.378;2023-05-16T05:32:15;9.47;;;1.77;;
44228;SDS011;29904;51.058;5.378;2023-05-16T05:34:40;10.57;;;1.75;;
44228;SDS011;29904;51.058;5.378;2023-05-16T05:37:06;11.37;;;1.80;;
44228;SDS011;29904;51.058;5.378;2023-05-16T05:39:32;9.90;;;1.60;;
44228;SDS011;29904;51.058;5.378;2023-05-16T05:41:57;9.90;;;1.60;;
44228;SDS011;29904;51.058;5.378;2023-05-16T05:44:23;11.13;;;1.80;;
44228;SDS011;29904;51.058;5.378;2023-05-16T05:46:49;10.43;;;1.70;;
44228;SDS011;29904;51.058;5.378;2023-05-16T05:49:15;7.47;;;1.30;;
44228;SDS011;29904;51.058;5.378;2023-05-16T05:51:41;11.37;;;1.67;;
44228;SDS011;29904;51.058;5.378;2023-05-16T05:54:07;6.47;;;1.42;;
44228;SDS011;29904;51.058;5.378;2023-05-16T05:56:33;10.80;;;1.45;;
44228;SDS011;29904;51.058;5.378;2023-05-16T05:58:58;9.93;;;1.90;;
44228;SDS011;29904;51.058;5.378;2023-05-16T06:01:25;9.32;;;1.20;;
44228;SDS011;29904;51.058;5.378;2023-05-16T06:03:51;7.38;;;1.48;;
44228;SDS011;29904;51.058;5.378;2023-05-16T06:06:17;11.63;;;1.77;;
44228;SDS011;29904;51.058;5.378;2023-05-16T06:08:43;9.32;;;1.52;;
44228;SDS011;29904;51.058;5.378;2023-05-16T06:11:08;7.20;;;1.15;;
44228;SDS011;29904;51.058;5.378;2023-05-16T06:13:34;9.52;;;1.30;;
44228;SDS011;29904;51.058;5.378;2023-05-16T06:16:00;7.63;;;1.48;;
44228;SDS011;29904;51.058;5.378;2023-05-16T06:18:26;7.07;;;1.40;;
44228;SDS011;29904;51.058;5.378;2023-05-16T06:20:52;6.30;;;1.00;;
44228;SDS011;29904;51.058;5.378;2023-05-16T06:23:18;7.28;;;1.27;;
44228;SDS011;29904;51.058;5.378;2023-05-16T06:25:44;8.80;;;1.20;;
44228;SDS011;29904;51.058;5.378;2023-05-16T06:28:09;10.85;;;1.40;;
44228;SDS011;29904;51.058;5.378;2023-05-16T06:30:35;7.45;;;1.33;;
44228;SDS011;29904;51.058;5.378;2023-05-16T06:33:01;6.43;;;1.00;;
44228;SDS011;29904;51.058;5.378;2023-05-16T06:35:26;4.75;;;0.93;;
44228;SDS011;29904;51.058;5.378;2023-05-16T06:37:52;11.70;;;1.47;;
44228;SDS011;29904;51.058;5.378;2023-05-16T06:40:18;8.20;;;1.10;;
44228;SDS011;29904;51.058;5.378;2023-05-16T06:42:43;6.57;;;1.10;;
44228;SDS011;29904;51.058;5.378;2023-05-16T06:45:09;7.03;;;1.10;;
44228;SDS011;29904;51.058;5.378;2023-05-16T06:47:35;6.68;;;1.00;;
44228;SDS011;29904;51.058;5.378;2023-05-16T06:50:01;5.82;;;1.00;;
44228;SDS011;29904;51.058;5.378;2023-05-16T06:52:26;10.10;;;1.60;;
44228;SDS011;29904;51.058;5.378;2023-05-16T06:54:52;6.70;;;1.13;;
44228;SDS011;29904;51.058;5.378;2023-05-16T06:57:18;6.73;;;0.93;;
44228;SDS011;29904;51.058;5.378;2023-05-16T06:59:44;7.10;;;1.20;;
44228;SDS011;29904;51.058;5.378;2023-05-16T07:02:10;5.10;;;0.80;;
44228;SDS011;29904;51.058;5.378;2023-05-16T07:04:35;8.60;;;1.00;;
44228;SDS011;29904;51.058;5.378;2023-05-16T07:07:02;7.35;;;1.10;;
44228;SDS011;29904;51.058;5.378;2023-05-16T07:09:28;7.25;;;1.00;;
44228;SDS011;29904;51.058;5.378;2023-05-16T07:11:54;5.78;;;0.90;;
44228;SDS011;29904;51.058;5.378;2023-05-16T07:14:20;6.75;;;0.90;;
44228;SDS011;29904;51.058;5.378;2023-05-16T07:16:45;4.50;;;1.07;;
44228;SDS011;29904;51.058;5.378;2023-05-16T07:19:11;4.38;;;0.98;;
44228;SDS011;29904;51.058;5.378;2023-05-16T07:21:37;5.25;;;0.85;;
44228;SDS011;29904;51.058;5.378;2023-05-16T07:24:02;4.10;;;0.80;;
44228;SDS011;29904;51.058;5.378;2023-05-16T07:26:28;6.70;;;0.90;;
44228;SDS011;29904;51.058;5.378;2023-05-16T07:28:54;6.37;;;1.00;;
44228;SDS011;29904;51.058;5.378;2023-05-16T07:31:20;7.85;;;1.10;;
44228;SDS011;29904;51.058;5.378;2023-05-16T07:33:46;7.53;;;1.02;;
44228;SDS011;29904;51.058;5.378;2023-05-16T07:36:13;6.40;;;1.35;;
44228;SDS011;29904;51.058;5.378;2023-05-16T07:38:38;5.72;;;1.00;;
44228;SDS011;29904;51.058;5.378;2023-05-16T07:41:04;5.57;;;0.90;;
44228;SDS011;29904;51.058;5.378;2023-05-16T07:43:30;6.70;;;1.10;;
44228;SDS011;29904;51.058;5.378;2023-05-16T07:45:59;6.88;;;1.10;;
44228;SDS011;29904;51.058;5.378;2023-05-16T07:48:25;5.55;;;0.90;;
44228;SDS011;29904;51.058;5.378;2023-05-16T07:50:51;5.80;;;1.03;;
44228;SDS011;29904;51.058;5.378;2023-05-16T07:53:17;5.30;;;0.98;;
44228;SDS011;29904;51.058;5.378;2023-05-16T07:55:43;7.07;;;0.93;;
44228;SDS011;29904;51.058;5.378;2023-05-16T07:58:08;7.85;;;1.08;;
44228;SDS011;29904;51.058;5.378;2023-05-16T08:00:34;7.10;;;1.00;;
44228;SDS011;29904;51.058;5.378;2023-05-16T08:03:00;4.65;;;1.00;;
44228;SDS011;29904;51.058;5.378;2023-05-16T08:05:26;6.57;;;0.90;;
44228;SDS011;29904;51.058;5.378;2023-05-16T08:07:52;6.40;;;1.00;;
44228;SDS011;29904;51.058;5.378;2023-05-16T08:10:17;4.80;;;0.90;;
44228;SDS011;29904;51.058;5.378;2023-05-16T08:12:43;6.22;;;0.95;;
44228;SDS011;29904;51.058;5.378;2023-05-16T08:15:10;6.38;;;0.90;;
44228;SDS011;29904;51.058;5.378;2023-05-16T08:17:36;4.47;;;0.93;;
44228;SDS011;29904;51.058;5.378;2023-05-16T08:20:02;3.65;;;0.95;;
44228;SDS011;29904;51.058;5.378;2023-05-16T08:22:28;5.65;;;0.88;;
44228;SDS011;29904;51.058;5.378;2023-05-16T08:24:54;6.72;;;0.73;;
44228;SDS011;29904;51.058;5.378;2023-05-16T08:27:24;5.87;;;0.90;;
44228;SDS011;29904;51.058;5.378;2023-05-16T08:29:50;4.05;;;0.70;;
44228;SDS011;29904;51.058;5.378;2023-05-16T08:32:16;4.03;;;0.70;;
44228;SDS011;29904;51.058;5.378;2023-05-16T08:34:42;3.60;;;0.70;;
44228;SDS011;29904;51.058;5.378;2023-05-16T08:37:07;4.15;;;0.70;;
44228;SDS011;29904;51.058;5.378;2023-05-16T08:39:34;4.05;;;0.80;;
44228;SDS011;29904;51.058;5.378;2023-05-16T08:42:00;4.53;;;0.57;;
44228;SDS011;29904;51.058;5.378;2023-05-16T08:44:27;3.03;;;0.50;;
44228;SDS011;29904;51.058;5.378;2023-05-16T08:46:53;2.63;;;0.40;;
44228;SDS011;29904;51.058;5.378;2023-05-16T08:49:19;3.20;;;0.70;;
44228;SDS011;29904;51.058;5.378;2023-05-16T08:51:46;4.72;;;0.73;;
44228;SDS011;29904;51.058;5.378;2023-05-16T08:54:13;3.55;;;0.70;;
44228;SDS011;29904;51.058;5.378;2023-05-16T08:56:43;2.90;;;0.60;;
44228;SDS011;29904;51.058;5.378;2023-05-16T08:59:10;3.10;;;0.60;;
44228;SDS011;29904;51.058;5.378;2023-05-16T09:01:36;2.28;;;0.50;;
44228;SDS011;29904;51.058;5.378;2023-05-16T09:04:03;2.83;;;0.52;;
44228;SDS011;29904;51.058;5.378;2023-05-16T09:06:31;3.88;;;0.80;;
44228;SDS011;29904;51.058;5.378;2023-05-16T09:08:56;3.00;;;0.70;;
44228;SDS011;29904;51.058;5.378;2023-05-16T09:11:22;4.83;;;0.73;;
44228;SDS011;29904;51.058;5.378;2023-05-16T09:13:48;4.82;;;0.75;;
44228;SDS011;29904;51.058;5.378;2023-05-16T09:16:15;4.70;;;0.77;;
44228;SDS011;29904;51.058;5.378;2023-05-16T09:18:45;6.40;;;0.77;;
44228;SDS011;29904;51.058;5.378;2023-05-16T09:21:18;2.03;;;0.70;;
44228;SDS011;29904;51.058;5.378;2023-05-16T09:23:43;3.27;;;0.70;;
44228;SDS011;29904;51.058;5.378;2023-05-16T09:26:12;4.10;;;0.60;;
44228;SDS011;29904;51.058;5.378;2023-05-16T09:28:38;5.07;;;0.93;;
44228;SDS011;29904;51.058;5.378;2023-05-16T09:31:18;3.22;;;0.70;;
44228;SDS011;29904;51.058;5.378;2023-05-16T09:33:45;4.22;;;0.88;;
44228;SDS011;29904;51.058;5.378;2023-05-16T09:36:13;3.25;;;0.70;;
44228;SDS011;29904;51.058;5.378;2023-05-16T09:38:40;3.37;;;0.50;;
44228;SDS011;29904;51.058;5.378;2023-05-16T09:41:07;3.88;;;0.60;;
44228;SDS011;29904;51.058;5.378;2023-05-16T09:43:36;4.65;;;0.70;;
44228;SDS011;29904;51.058;5.378;2023-05-16T09:46:04;2.50;;;0.50;;
44228;SDS011;29904;51.058;5.378;2023-05-16T09:48:31;4.93;;;0.90;;
44228;SDS011;29904;51.058;5.378;2023-05-16T09:50:57;4.23;;;0.60;;
44228;SDS011;29904;51.058;5.378;2023-05-16T09:53:31;3.92;;;0.50;;
44228;SDS011;29904;51.058;5.378;2023-05-16T09:56:01;3.65;;;0.60;;
44228;SDS011;29904;51.058;5.378;2023-05-16T09:58:32;4.00;;;0.63;;
44228;SDS011;29904;51.058;5.378;2023-05-16T10:01:00;3.60;;;0.63;;
44228;SDS011;29904;51.058;5.378;2023-05-16T10:03:26;3.67;;;0.60;;
44228;SDS011;29904;51.058;5.378;2023-05-16T10:05:53;3.60;;;0.50;;
44228;SDS011;29904;51.058;5.378;2023-05-16T10:08:20;3.25;;;0.75;;
44228;SDS011;29904;51.058;5.378;2023-05-16T10:10:51;5.15;;;0.90;;
44228;SDS011;29904;51.058;5.378;2023-05-16T10:13:23;4.65;;;0.60;;
44228;SDS011;29904;51.058;5.378;2023-05-16T10:15:57;2.83;;;0.70;;
44228;SDS011;29904;51.058;5.378;2023-05-16T10:18:30;4.93;;;0.85;;
44228;SDS011;29904;51.058;5.378;2023-05-16T10:20:57;4.07;;;0.80;;
44228;SDS011;29904;51.058;5.378;2023-05-16T10:23:30;5.75;;;0.70;;
44228;SDS011;29904;51.058;5.378;2023-05-16T10:25:59;3.17;;;0.85;;
44228;SDS011;29904;51.058;5.378;2023-05-16T10:28:27;4.15;;;0.88;;
44228;SDS011;29904;51.058;5.378;2023-05-16T10:30:53;6.03;;;0.95;;
44228;SDS011;29904;51.058;5.378;2023-05-16T10:33:20;3.30;;;0.70;;
44228;SDS011;29904;51.058;5.378;2023-05-16T10:35:46;5.25;;;0.80;;
44228;SDS011;29904;51.058;5.378;2023-05-16T10:38:13;3.22;;;0.88;;
44228;SDS011;29904;51.058;5.378;2023-05-16T10:40:41;2.38;;;0.55;;
44228;SDS011;29904;51.058;5.378;2023-05-16T10:43:07;5.35;;;0.82;;
44228;SDS011;29904;51.058;5.378;2023-05-16T10:45:34;2.30;;;0.60;;
44228;SDS011;29904;51.058;5.378;2023-05-16T10:48:05;4.03;;;0.70;;
44228;SDS011;29904;51.058;5.378;2023-05-16T11:01:14;4.47;;;0.70;;
44228;SDS011;29904;51.058;5.378;2023-05-16T11:19:42;3.65;;;0.70;;
44228;SDS011;29904;51.058;5.378;2023-05-16T11:27:30;2.33;;;0.50;;
44228;SDS011;29904;51.058;5.378;2023-05-16T11:32:31;3.15;;;0.57;;
44228;SDS011;29904;51.058;5.378;2023-05-16T11:34:59;2.53;;;0.43;;
44228;SDS011;29904;51.058;5.378;2023-05-16T11:37:28;2.95;;;0.50;;
44228;SDS011;29904;51.058;5.378;2023-05-16T11:40:00;1.87;;;0.40;;
44228;SDS011;29904;51.058;5.378;2023-05-16T11:42:33;3.78;;;0.60;;
44228;SDS011;29904;51.058;5.378;2023-05-16T11:45:09;4.35;;;0.50;;
44228;SDS011;29904;51.058;5.378;2023-05-16T11:47:37;1.88;;;0.50;;
44228;SDS011;29904;51.058;5.378;2023-05-16T11:50:12;2.93;;;0.50;;
44228;SDS011;29904;51.058;5.378;2023-05-16T11:52:42;3.85;;;0.60;;
44228;SDS011;29904;51.058;5.378;2023-05-16T11:55:12;2.35;;;0.60;;
44228;SDS011;29904;51.058;5.378;2023-05-16T11:57:40;2.92;;;0.60;;
44228;SDS011;29904;51.058;5.378;2023-05-16T12:00:13;3.30;;;0.65;;
44228;SDS011;29904;51.058;5.378;2023-05-16T12:02:40;2.97;;;0.60;;
44228;SDS011;29904;51.058;5.378;2023-05-16T12:05:07;2.97;;;0.70;;
44228;SDS011;29904;51.058;5.378;2023-05-16T12:07:34;3.03;;;0.60;;
44228;SDS011;29904;51.058;5.378;2023-05-16T12:10:04;2.92;;;0.70;;
44228;SDS011;29904;51.058;5.378;2023-05-16T12:12:38;3.07;;;0.80;;
44228;SDS011;29904;51.058;5.378;2023-05-16T12:15:06;3.47;;;0.63;;
44228;SDS011;29904;51.058;5.378;2023-05-16T12:17:36;2.08;;;0.60;;
44228;SDS011;29904;51.058;5.378;2023-05-16T12:20:04;3.17;;;0.70;;
44228;SDS011;29904;51.058;5.378;2023-05-16T12:22:31;4.68;;;0.80;;
44228;SDS011;29904;51.058;5.378;2023-05-16T12:27:53;4.65;;;0.70;;
44228;SDS011;29904;51.058;5.378;2023-05-16T12:30:21;2.70;;;0.70;;
44228;SDS011;29904;51.058;5.378;2023-05-16T12:32:51;4.13;;;0.88;;
44228;SDS011;29904;51.058;5.378;2023-05-16T12:35:24;5.05;;;0.80;;
44228;SDS011;29904;51.058;5.378;2023-05-16T12:37:54;4.20;;;0.73;;
44228;SDS011;29904;51.058;5.378;2023-05-16T12:40:20;2.75;;;0.82;;
44228;SDS011;29904;51.058;5.378;2023-05-16T12:42:49;4.07;;;0.80;;
44228;SDS011;29904;51.058;5.378;2023-05-16T12:45:16;3.08;;;0.60;;
44228;SDS011;29904;51.058;5.378;2023-05-16T12:47:42;2.88;;;0.70;;
44228;SDS011;29904;51.058;5.378;2023-05-16T12:50:09;7.78;;;1.10;;
44228;SDS011;29904;51.058;5.378;2023-05-16T12:52:51;4.03;;;0.70;;
44228;SDS011;29904;51.058;5.378;2023-05-16T12:55:19;4.93;;;0.80;;
44228;SDS011;29904;51.058;5.378;2023-05-16T12:57:46;3.53;;;0.70;;
44228;SDS011;29904;51.058;5.378;2023-05-16T13:00:14;3.90;;;0.90;;
44228;SDS011;29904;51.058;5.378;2023-05-16T13:02:43;6.85;;;1.20;;
44228;SDS011;29904;51.058;5.378;2023-05-16T13:05:09;3.45;;;0.60;;
44228;SDS011;29904;51.058;5.378;2023-05-16T13:07:36;2.47;;;0.70;;
44228;SDS011;29904;51.058;5.378;2023-05-16T13:10:05;6.47;;;0.90;;
44228;SDS011;29904;51.058;5.378;2023-05-16T13:12:34;3.97;;;0.90;;
44228;SDS011;29904;51.058;5.378;2023-05-16T13:15:00;3.70;;;0.85;;
44228;SDS011;29904;51.058;5.378;2023-05-16T13:17:26;4.30;;;0.80;;
44228;SDS011;29904;51.058;5.378;2023-05-16T13:19:54;4.80;;;0.90;;
44228;SDS011;29904;51.058;5.378;2023-05-16T13:22:20;2.75;;;0.63;;
44228;SDS011;29904;51.058;5.378;2023-05-16T13:24:45;2.65;;;0.73;;
44228;SDS011;29904;51.058;5.378;2023-05-16T13:27:14;3.03;;;1.00;;
44228;SDS011;29904;51.058;5.378;2023-05-16T13:29:40;2.75;;;0.70;;
44228;SDS011;29904;51.058;5.378;2023-05-16T13:32:06;3.53;;;0.60;;
44228;SDS011;29904;51.058;5.378;2023-05-16T13:34:32;3.85;;;0.60;;
44228;SDS011;29904;51.058;5.378;2023-05-16T13:36:58;2.83;;;0.70;;
44228;SDS011;29904;51.058;5.378;2023-05-16T13:39:23;2.43;;;0.73;;
44228;SDS011;29904;51.058;5.378;2023-05-16T13:41:49;2.80;;;0.80;;
44228;SDS011;29904;51.058;5.378;2023-05-16T13:44:15;4.63;;;0.90;;
44228;SDS011;29904;51.058;5.378;2023-05-16T13:46:42;4.30;;;1.00;;
44228;SDS011;29904;51.058;5.378;2023-05-16T13:49:08;2.83;;;0.75;;
44228;SDS011;29904;51.058;5.378;2023-05-16T13:51:34;2.53;;;0.70;;
44228;SDS011;29904;51.058;5.378;2023-05-16T13:53:59;3.93;;;0.70;;
44228;SDS011;29904;51.058;5.378;2023-05-16T13:56:25;3.63;;;0.77;;
44228;SDS011;29904;51.058;5.378;2023-05-16T13:58:51;4.33;;;0.90;;
44228;SDS011;29904;51.058;5.378;2023-05-16T14:01:16;3.50;;;0.90;;
44228;SDS011;29904;51.058;5.378;2023-05-16T14:03:42;2.65;;;0.93;;
44228;SDS011;29904;51.058;5.378;2023-05-16T14:06:08;2.53;;;0.80;;
44228;SDS011;29904;51.058;5.378;2023-05-16T14:08:34;3.25;;;0.90;;
44228;SDS011;29904;51.058;5.378;2023-05-16T14:11:00;3.17;;;0.73;;
44228;SDS011;29904;51.058;5.378;2023-05-16T14:13:25;2.67;;;0.70;;
44228;SDS011;29904;51.058;5.378;2023-05-16T14:15:51;4.47;;;0.82;;
44228;SDS011;29904;51.058;5.378;2023-05-16T14:18:17;2.35;;;0.68;;
44228;SDS011;29904;51.058;5.378;2023-05-16T14:20:42;3.37;;;0.90;;
44228;SDS011;29904;51.058;5.378;2023-05-16T14:23:08;2.25;;;0.80;;
44228;SDS011;29904;51.058;5.378;2023-05-16T14:25:34;3.63;;;0.80;;
44228;SDS011;29904;51.058;5.378;2023-05-16T14:28:00;3.65;;;0.80;;
44228;SDS011;29904;51.058;5.378;2023-05-16T14:30:26;3.42;;;0.90;;
44228;SDS011;29904;51.058;5.378;2023-05-16T14:32:52;3.13;;;0.70;;
44228;SDS011;29904;51.058;5.378;2023-05-16T14:35:17;3.50;;;0.80;;
44228;SDS011;29904;51.058;5.378;2023-05-16T14:37:43;4.82;;;0.80;;
44228;SDS011;29904;51.058;5.378;2023-05-16T14:40:09;3.20;;;0.90;;
44228;SDS011;29904;51.058;5.378;2023-05-16T14:42:35;2.03;;;0.63;;
44228;SDS011;29904;51.058;5.378;2023-05-16T14:45:01;3.17;;;0.80;;
44228;SDS011;29904;51.058;5.378;2023-05-16T14:47:27;2.50;;;0.70;;
44228;SDS011;29904;51.058;5.378;2023-05-16T14:49:53;5.57;;;1.00;;
44228;SDS011;29904;51.058;5.378;2023-05-16T14:52:19;4.15;;;1.00;;
44228;SDS011;29904;51.058;5.378;2023-05-16T14:54:46;3.70;;;0.80;;
44228;SDS011;29904;51.058;5.378;2023-05-16T14:57:11;4.03;;;0.80;;
44228;SDS011;29904;51.058;5.378;2023-05-16T14:59:37;2.88;;;0.80;;
44228;SDS011;29904;51.058;5.378;2023-05-16T15:02:03;4.40;;;0.90;;
44228;SDS011;29904;51.058;5.378;2023-05-16T15:04:31;7.38;;;1.10;;
44228;SDS011;29904;51.058;5.378;2023-05-16T15:06:56;3.22;;;0.93;;
44228;SDS011;29904;51.058;5.378;2023-05-16T15:09:22;4.65;;;0.90;;
44228;SDS011;29904;51.058;5.378;2023-05-16T15:11:48;3.97;;;1.10;;
44228;SDS011;29904;51.058;5.378;2023-05-16T15:14:14;2.43;;;0.93;;
44228;SDS011;29904;51.058;5.378;2023-05-16T15:16:40;3.87;;;0.70;;
44228;SDS011;29904;51.058;5.378;2023-05-16T15:19:06;4.18;;;0.98;;
44228;SDS011;29904;51.058;5.378;2023-05-16T15:21:31;5.20;;;0.85;;
44228;SDS011;29904;51.058;5.378;2023-05-16T15:23:57;2.20;;;0.80;;
44228;SDS011;29904;51.058;5.378;2023-05-16T15:26:23;4.00;;;1.48;;
44228;SDS011;29904;51.058;5.378;2023-05-16T15:28:49;2.35;;;0.80;;
44228;SDS011;29904;51.058;5.378;2023-05-16T15:31:15;4.15;;;1.00;;
44228;SDS011;29904;51.058;5.378;2023-05-16T15:33:40;3.27;;;0.60;;
44228;SDS011;29904;51.058;5.378;2023-05-16T15:36:06;3.55;;;0.70;;
44228;SDS011;29904;51.058;5.378;2023-05-16T15:38:32;4.50;;;0.80;;